createdAt,value
2023-05-21T00:00:32.604Z,44.25
2023-05-21T00:01:32.534Z,44.36
2023-05-21T00:02:32.582Z,44.33
2023-05-21T00:03:32.632Z,44.12
2023-05-21T00:04:32.521Z,43.95
2023-05-21T00:05:32.551Z,43.90
2023-05-21T00:06:33.051Z,43.92
2023-05-21T00:07:32.525Z,43.91
2023-05-21T00:08:32.493Z,43.87
2023-05-21T00:09:32.491Z,43.88
2023-05-21T00:10:32.495Z,43.80
2023-05-21T00:11:32.450Z,43.78
2023-05-21T00:12:32.524Z,43.80
2023-05-21T00:13:32.482Z,43.88
2023-05-21T00:14:32.491Z,43.79
2023-05-21T00:15:32.447Z,43.77
2023-05-21T00:16:32.501Z,43.87
2023-05-21T00:17:32.407Z,44.09
2023-05-21T00:18:32.582Z,44.12
2023-05-21T00:19:32.596Z,44.35
2023-05-21T00:20:32.615Z,44.53
2023-05-21T00:21:32.570Z,44.64
2023-05-21T00:22:32.575Z,44.68
2023-05-21T00:23:32.668Z,44.72
2023-05-21T00:24:32.613Z,44.65
2023-05-21T00:25:32.697Z,44.59
2023-05-21T00:26:32.714Z,44.75
2023-05-21T00:27:33.542Z,44.79
2023-05-21T00:28:32.797Z,44.76
2023-05-21T00:29:32.851Z,44.80
2023-05-21T00:30:33.068Z,45.08
2023-05-21T00:31:32.902Z,45.40
2023-05-21T00:32:32.913Z,45.66
2023-05-21T00:33:33.541Z,45.76
2023-05-21T00:34:32.997Z,45.95
2023-05-21T00:35:33.073Z,46.18
2023-05-21T00:36:33.090Z,46.19
2023-05-21T00:37:33.200Z,46.43
2023-05-21T00:38:33.192Z,46.34
2023-05-21T00:39:33.353Z,46.31
2023-05-21T00:40:33.320Z,46.33
2023-05-21T00:41:33.376Z,46.28
2023-05-21T00:42:33.424Z,46.31
2023-05-21T00:43:33.504Z,46.29
2023-05-21T00:44:33.552Z,46.31
2023-05-21T00:45:33.677Z,46.51
2023-05-21T00:46:33.687Z,46.66
2023-05-21T00:47:33.695Z,46.79
2023-05-21T00:48:33.802Z,46.84
2023-05-21T00:49:33.803Z,46.75
2023-05-21T00:50:33.895Z,46.63
2023-05-21T00:51:33.926Z,46.55
2023-05-21T00:52:33.967Z,46.79
2023-05-21T00:53:34.061Z,46.78
2023-05-21T00:54:34.124Z,46.77
2023-05-21T00:55:34.312Z,46.81
2023-05-21T00:56:34.301Z,46.86
2023-05-21T00:57:34.291Z,46.80
2023-05-21T00:58:34.419Z,46.87
2023-05-21T00:59:35.343Z,46.96
2023-05-21T01:00:34.373Z,46.91
2023-05-21T01:01:34.448Z,46.85
2023-05-21T01:02:34.408Z,46.81
2023-05-21T01:03:34.362Z,46.87
2023-05-21T01:04:34.302Z,47.28
2023-05-21T01:05:34.514Z,47.58
2023-05-21T01:06:35.305Z,47.75
2023-05-21T01:07:34.341Z,47.72
2023-05-21T01:08:34.322Z,47.85
2023-05-21T01:09:34.266Z,47.75
2023-05-21T01:10:34.306Z,47.95
2023-05-21T01:11:34.272Z,47.95
2023-05-21T01:12:34.274Z,47.91
2023-05-21T01:13:34.292Z,47.94
2023-05-21T01:14:34.966Z,47.87
2023-05-21T01:15:34.397Z,47.79
2023-05-21T01:16:34.307Z,47.71
2023-05-21T01:17:34.493Z,47.77
2023-05-21T01:18:34.281Z,47.90
2023-05-21T01:19:34.293Z,47.98
2023-05-21T01:20:34.557Z,48.01
2023-05-21T01:21:34.212Z,47.97
2023-05-21T01:22:34.181Z,48.16
2023-05-21T01:23:34.241Z,48.48
2023-05-21T01:24:34.238Z,48.68
2023-05-21T01:25:34.542Z,48.68
2023-05-21T01:26:34.242Z,48.54
2023-05-21T01:27:35.023Z,48.47
2023-05-21T01:28:34.296Z,48.43
2023-05-21T01:29:34.292Z,48.37
2023-05-21T01:30:34.310Z,48.27
2023-05-21T01:31:34.338Z,48.22
2023-05-21T01:32:34.429Z,48.20
2023-05-21T01:33:34.422Z,48.21
2023-05-21T01:34:34.446Z,48.22
2023-05-21T01:35:34.530Z,48.13
2023-05-21T01:36:34.414Z,48.17
2023-05-21T01:37:34.417Z,48.21
2023-05-21T01:38:35.055Z,48.08
2023-05-21T01:39:34.488Z,48.10
2023-05-21T01:40:34.581Z,48.13
2023-05-21T01:41:34.539Z,48.05
2023-05-21T01:42:34.544Z,48.05
2023-05-21T01:43:34.561Z,48.04
2023-05-21T01:44:34.604Z,47.98
2023-05-21T01:45:34.726Z,47.93
2023-05-21T01:46:34.801Z,47.90
2023-05-21T01:47:34.714Z,48.05
2023-05-21T01:48:34.696Z,48.18
2023-05-21T01:49:34.712Z,48.08
2023-05-21T01:50:34.756Z,48.05
2023-05-21T01:51:34.767Z,47.96
2023-05-21T01:52:34.766Z,47.90
2023-05-21T01:53:34.796Z,48.02
2023-05-21T01:54:34.815Z,48.18
2023-05-21T01:55:35.026Z,48.04
2023-05-21T01:56:34.851Z,47.96
2023-05-21T01:57:34.900Z,47.85
2023-05-21T01:58:34.911Z,47.77
2023-05-21T01:59:34.956Z,47.70
2023-05-21T02:00:35.092Z,47.65
2023-05-21T02:01:35.073Z,47.56
2023-05-21T02:02:35.588Z,47.55
2023-05-21T02:03:36.224Z,47.59
2023-05-21T02:04:35.193Z,47.68
2023-05-21T02:05:35.427Z,47.76
2023-05-21T02:06:35.177Z,47.94
2023-05-21T02:07:35.229Z,48.50
2023-05-21T02:08:35.251Z,49.01
2023-05-21T02:09:35.279Z,48.91
2023-05-21T02:10:35.364Z,48.98
2023-05-21T02:11:35.352Z,48.98
2023-05-21T02:12:35.373Z,49.06
2023-05-21T02:13:35.390Z,49.41
2023-05-21T02:14:35.422Z,49.48
2023-05-21T02:15:35.743Z,49.42
2023-05-21T02:16:35.654Z,49.40
2023-05-21T02:17:35.620Z,49.27
2023-05-21T02:18:38.594Z,49.20
2023-05-21T02:19:36.709Z,49.18
2023-05-21T02:20:35.604Z,49.22
2023-05-21T02:21:35.641Z,49.14
2023-05-21T02:22:35.617Z,49.20
2023-05-21T02:23:35.688Z,49.20
2023-05-21T02:24:35.591Z,49.21
2023-05-21T02:25:35.721Z,49.16
2023-05-21T02:26:35.568Z,49.31
2023-05-21T02:27:35.607Z,49.35
2023-05-21T02:28:35.581Z,49.32
2023-05-21T02:29:35.636Z,49.34
2023-05-21T02:30:36.660Z,49.34
2023-05-21T02:31:35.581Z,49.36
2023-05-21T02:32:35.588Z,49.37
2023-05-21T02:33:35.544Z,49.35
2023-05-21T02:34:35.527Z,49.27
2023-05-21T02:35:35.637Z,49.26
2023-05-21T02:36:35.610Z,49.43
2023-05-21T02:37:35.548Z,49.41
2023-05-21T02:38:35.503Z,49.38
2023-05-21T02:39:35.532Z,49.37
2023-05-21T02:40:35.665Z,49.36
2023-05-21T02:41:35.539Z,49.40
2023-05-21T02:42:35.638Z,49.46
2023-05-21T02:43:35.661Z,49.35
2023-05-21T02:44:36.649Z,49.32
2023-05-21T02:45:35.891Z,49.28
2023-05-21T02:46:35.613Z,49.24
2023-05-21T02:47:35.646Z,49.33
2023-05-21T02:48:35.625Z,49.32
2023-05-21T02:49:35.592Z,49.28
2023-05-21T02:50:35.639Z,49.37
2023-05-21T02:51:35.632Z,49.37
2023-05-21T02:52:35.572Z,49.23
2023-05-21T02:53:35.611Z,49.26
2023-05-21T02:54:36.578Z,49.28
2023-05-21T02:55:36.047Z,49.22
2023-05-21T02:56:35.777Z,49.24
2023-05-21T02:57:35.833Z,49.30
2023-05-21T02:58:35.837Z,49.34
2023-05-21T02:59:35.896Z,49.24
2023-05-21T03:00:35.911Z,49.27
2023-05-21T03:01:35.931Z,49.21
2023-05-21T03:02:35.982Z,49.34
2023-05-21T03:03:36.156Z,49.46
2023-05-21T03:04:35.978Z,49.52
2023-05-21T03:05:36.239Z,49.52
2023-05-21T03:06:35.941Z,49.53
2023-05-21T03:07:35.991Z,49.48
2023-05-21T03:08:35.979Z,49.56
2023-05-21T03:09:35.980Z,49.52
2023-05-21T03:10:35.968Z,49.53
2023-05-21T03:11:35.991Z,49.38
2023-05-21T03:12:36.022Z,49.41
2023-05-21T03:13:35.995Z,49.50
2023-05-21T03:14:36.000Z,49.54
2023-05-21T03:15:36.260Z,49.46
2023-05-21T03:16:36.079Z,49.35
2023-05-21T03:17:36.089Z,49.48
2023-05-21T03:18:36.148Z,49.63
2023-05-21T03:19:36.093Z,49.95
2023-05-21T03:20:36.069Z,50.02
2023-05-21T03:21:36.118Z,50.36
2023-05-21T03:22:36.121Z,50.51
2023-05-21T03:23:36.089Z,50.41
2023-05-21T03:24:36.146Z,50.47
2023-05-21T03:25:36.782Z,50.40
2023-05-21T03:26:36.189Z,50.23
2023-05-21T03:27:36.168Z,50.26
2023-05-21T03:28:36.174Z,50.09
2023-05-21T03:29:36.238Z,50.07
2023-05-21T03:30:36.217Z,50.13
2023-05-21T03:31:36.284Z,50.03
2023-05-21T03:32:36.231Z,50.30
2023-05-21T03:33:36.273Z,50.41
2023-05-21T03:34:36.211Z,50.36
2023-05-21T03:35:36.507Z,50.28
2023-05-21T03:36:36.212Z,50.26
2023-05-21T03:37:36.235Z,50.34
2023-05-21T03:38:37.219Z,50.30
2023-05-21T03:39:36.247Z,50.16
2023-05-21T03:40:36.205Z,50.20
2023-05-21T03:41:36.231Z,50.12
2023-05-21T03:42:36.264Z,50.28
2023-05-21T03:43:36.328Z,50.29
2023-05-21T03:44:36.231Z,50.30
2023-05-21T03:45:36.689Z,50.26
2023-05-21T03:46:36.336Z,50.28
2023-05-21T03:47:36.312Z,50.33
2023-05-21T03:48:36.208Z,50.43
2023-05-21T03:49:36.251Z,50.40
2023-05-21T03:50:36.253Z,50.34
2023-05-21T03:51:36.229Z,50.24
2023-05-21T03:52:36.278Z,50.31
2023-05-21T03:53:36.248Z,50.29
2023-05-21T03:54:36.260Z,50.33
2023-05-21T03:55:36.875Z,50.39
2023-05-21T03:56:36.231Z,50.38
2023-05-21T03:57:36.300Z,50.33
2023-05-21T03:58:36.285Z,50.24
2023-05-21T03:59:36.348Z,50.22
2023-05-21T04:00:36.289Z,50.24
2023-05-21T04:01:36.352Z,50.29
2023-05-21T04:02:36.396Z,50.32
2023-05-21T04:03:37.844Z,50.39
2023-05-21T04:04:36.300Z,50.36
2023-05-21T04:05:36.815Z,50.36
2023-05-21T04:06:36.280Z,50.25
2023-05-21T04:07:36.225Z,50.20
2023-05-21T04:08:36.246Z,50.08
2023-05-21T04:09:36.918Z,50.09
2023-05-21T04:10:37.125Z,49.95
2023-05-21T04:11:36.192Z,50.06
2023-05-21T04:12:36.252Z,50.10
2023-05-21T04:13:36.217Z,50.32
2023-05-21T04:14:36.182Z,50.71
2023-05-21T04:15:36.579Z,51.11
2023-05-21T04:16:36.263Z,51.36
2023-05-21T04:17:36.228Z,51.76
2023-05-21T04:18:36.197Z,51.91
2023-05-21T04:19:36.192Z,51.86
2023-05-21T04:20:36.157Z,51.84
2023-05-21T04:21:36.116Z,51.93
2023-05-21T04:24:06.449Z,52.75
2023-05-21T04:25:12.289Z,52.79
2023-05-21T04:25:56.220Z,52.70
2023-05-21T04:27:06.265Z,52.91
2023-05-21T04:29:31.007Z,52.96
2023-05-21T04:30:26.029Z,53.08
2023-05-21T04:32:35.697Z,52.94
2023-05-21T04:33:35.407Z,52.69
2023-05-21T04:34:35.379Z,52.62
2023-05-21T04:35:35.568Z,52.68
2023-05-21T04:36:36.121Z,52.58
2023-05-21T04:37:35.417Z,52.49
2023-05-21T04:38:35.349Z,52.40
2023-05-21T04:39:35.411Z,52.37
2023-05-21T04:40:36.635Z,52.35
2023-05-21T04:41:35.334Z,52.33
2023-05-21T04:42:35.344Z,52.44
2023-05-21T04:43:35.358Z,52.59
2023-05-21T04:44:35.368Z,52.65
2023-05-21T04:45:35.688Z,52.78
2023-05-21T04:46:35.437Z,52.79
2023-05-21T04:48:55.457Z,52.61
2023-05-21T04:49:55.304Z,52.34
2023-05-21T04:50:55.288Z,52.12
2023-05-21T04:51:55.270Z,51.97
2023-05-21T04:52:55.240Z,51.89
2023-05-21T04:53:55.267Z,51.92
2023-05-21T04:54:55.260Z,51.92
2023-05-21T04:55:55.509Z,51.86
2023-05-21T04:56:55.279Z,51.83
2023-05-21T04:57:55.269Z,51.37
2023-05-21T04:58:55.219Z,51.09
2023-05-21T04:59:55.266Z,51.06
2023-05-21T05:00:55.223Z,51.08
2023-05-21T05:01:55.177Z,50.98
2023-05-21T05:02:55.275Z,50.93
2023-05-21T05:03:55.223Z,50.93
2023-05-21T05:04:55.201Z,51.01
2023-05-21T05:05:55.166Z,51.11
2023-05-21T05:06:55.171Z,51.12
2023-05-21T05:07:55.154Z,51.37
2023-05-21T05:08:55.156Z,51.21
2023-05-21T05:09:55.137Z,51.22
2023-05-21T05:10:55.138Z,51.27
2023-05-21T05:11:55.106Z,51.50
2023-05-21T05:12:55.098Z,51.50
2023-05-21T05:13:55.123Z,51.47
2023-05-21T05:14:55.121Z,51.59
2023-05-21T05:15:55.508Z,51.60
2023-05-21T05:16:55.140Z,51.62
2023-05-21T05:17:55.114Z,51.68
2023-05-21T05:18:55.187Z,51.78
2023-05-21T05:21:14.735Z,52.11
2023-05-21T05:22:14.660Z,52.02
2023-05-21T05:23:14.568Z,51.99
2023-05-21T05:24:14.607Z,52.05
2023-05-21T05:25:14.626Z,52.02
2023-05-21T05:26:14.672Z,51.99
2023-05-21T05:27:14.668Z,51.89
2023-05-21T05:28:14.577Z,51.95
2023-05-21T05:29:14.567Z,51.91
2023-05-21T05:30:14.496Z,51.89
2023-05-21T05:31:14.567Z,51.81
2023-05-21T05:32:14.603Z,51.97
2023-05-21T05:33:14.533Z,51.96
2023-05-21T05:34:14.501Z,52.05
2023-05-21T05:35:14.514Z,52.01
2023-05-21T05:36:14.542Z,52.03
2023-05-21T05:37:14.487Z,51.92
2023-05-21T05:38:14.462Z,51.86
2023-05-21T05:39:14.475Z,51.76
2023-05-21T05:40:14.509Z,51.70
2023-05-21T05:41:14.467Z,51.63
2023-05-21T05:42:14.423Z,51.60
2023-05-21T05:43:14.537Z,51.58
2023-05-21T05:44:14.404Z,51.44
2023-05-21T05:45:14.417Z,51.42
2023-05-21T05:46:14.833Z,51.43
2023-05-21T05:47:14.402Z,51.39
2023-05-21T05:48:14.406Z,51.37
2023-05-21T05:49:14.475Z,51.26
2023-05-21T05:50:14.364Z,51.22
2023-05-21T05:51:29.350Z,51.25
2023-05-21T05:52:14.383Z,51.26
2023-05-21T05:53:14.373Z,51.39
2023-05-21T05:54:14.363Z,51.22
2023-05-21T05:55:14.379Z,51.02
2023-05-21T05:56:14.802Z,50.95
2023-05-21T05:57:14.325Z,51.11
2023-05-21T05:58:14.358Z,50.92
2023-05-21T05:59:14.326Z,50.88
2023-05-21T06:00:14.304Z,50.83
2023-05-21T06:01:14.328Z,50.87
2023-05-21T06:02:14.365Z,50.96
2023-05-21T06:03:14.527Z,50.89
2023-05-21T06:04:14.256Z,50.83
2023-05-21T06:05:14.307Z,50.85
2023-05-21T06:06:14.410Z,50.58
2023-05-21T06:07:14.248Z,50.68
2023-05-21T06:08:14.262Z,50.77
2023-05-21T06:09:14.253Z,50.90
2023-05-21T06:10:14.279Z,50.73
2023-05-21T06:11:14.347Z,50.70
2023-05-21T06:12:15.080Z,50.75
2023-05-21T06:13:14.215Z,50.75
2023-05-21T06:14:14.188Z,50.78
2023-05-21T06:15:14.186Z,50.72
2023-05-21T06:16:14.246Z,50.71
2023-05-21T06:17:14.173Z,50.77
2023-05-21T06:18:14.159Z,50.87
2023-05-21T06:19:14.198Z,50.89
2023-05-21T06:20:14.160Z,50.93
2023-05-21T06:21:14.167Z,50.82
2023-05-21T06:22:14.229Z,50.62
2023-05-21T06:23:14.188Z,50.48
2023-05-21T06:24:14.163Z,50.41
2023-05-21T06:25:14.088Z,50.62
2023-05-21T06:26:14.138Z,50.61
2023-05-21T06:27:14.200Z,50.96
2023-05-21T06:28:14.140Z,51.10
2023-05-21T06:29:15.535Z,50.95
2023-05-21T06:30:14.154Z,50.96
2023-05-21T06:31:14.097Z,50.78
2023-05-21T06:32:14.078Z,50.47
2023-05-21T06:33:14.157Z,50.30
2023-05-21T06:34:14.061Z,50.44
2023-05-21T06:35:14.088Z,50.39
2023-05-21T06:36:14.074Z,50.31
2023-05-21T06:37:14.047Z,50.22
2023-05-21T06:38:14.112Z,50.16
2023-05-21T06:39:14.045Z,50.15
2023-05-21T06:40:14.026Z,50.24
2023-05-21T06:41:13.997Z,50.22
2023-05-21T06:42:14.050Z,50.24
2023-05-21T06:43:14.032Z,50.08
2023-05-21T06:44:14.010Z,50.21
2023-05-21T06:45:13.991Z,50.18
2023-05-21T06:46:14.379Z,50.48
2023-05-21T06:47:14.020Z,50.69
2023-05-21T06:48:13.953Z,50.96
2023-05-21T06:49:14.456Z,50.86
2023-05-21T06:50:13.955Z,50.68
2023-05-21T06:51:13.983Z,50.69
2023-05-21T06:52:13.951Z,50.90
2023-05-21T06:53:13.949Z,50.86
2023-05-21T06:54:13.957Z,50.55
2023-05-21T06:55:13.954Z,50.33
2023-05-21T06:56:13.959Z,50.24
2023-05-21T06:57:13.900Z,50.18
2023-05-21T06:58:13.922Z,50.02
2023-05-21T06:59:13.931Z,49.93
2023-05-21T07:00:13.888Z,49.63
2023-05-21T07:01:14.415Z,49.59
2023-05-21T07:02:13.872Z,49.89
2023-05-21T07:03:14.018Z,49.78
2023-05-21T07:04:13.849Z,49.58
2023-05-21T07:05:13.932Z,49.59
2023-05-21T07:06:13.934Z,49.72
2023-05-21T07:07:13.976Z,49.42
2023-05-21T07:08:14.053Z,49.47
2023-05-21T07:09:14.138Z,49.48
2023-05-21T07:10:14.175Z,49.44
2023-05-21T07:11:14.171Z,49.52
2023-05-21T07:12:14.233Z,49.47
2023-05-21T07:13:14.284Z,49.31
2023-05-21T07:14:14.345Z,49.44
2023-05-21T07:15:14.372Z,49.36
2023-05-21T07:16:14.821Z,49.31
2023-05-21T07:17:14.416Z,49.34
2023-05-21T07:18:14.490Z,49.31
2023-05-21T07:19:14.555Z,49.30
2023-05-21T07:20:14.486Z,49.27
2023-05-21T07:21:14.894Z,49.59
2023-05-21T07:22:14.501Z,49.40
2023-05-21T07:23:14.528Z,49.61
2023-05-21T07:24:14.505Z,49.28
2023-05-21T07:25:14.497Z,49.10
2023-05-21T07:26:14.523Z,49.01
2023-05-21T07:27:25.318Z,49.23
2023-05-21T07:28:15.519Z,49.05
2023-05-21T07:29:14.492Z,48.86
2023-05-21T07:30:14.533Z,48.86
2023-05-21T07:31:14.557Z,48.87
2023-05-21T07:32:14.516Z,48.80
2023-05-21T07:33:14.441Z,48.80
2023-05-21T07:34:14.470Z,48.55
2023-05-21T07:35:14.471Z,48.48
2023-05-21T07:36:14.498Z,48.69
2023-05-21T07:37:14.581Z,48.61
2023-05-21T07:38:14.408Z,48.87
2023-05-21T07:39:14.471Z,48.71
2023-05-21T07:40:14.482Z,48.64
2023-05-21T07:41:15.572Z,48.55
2023-05-21T07:42:14.793Z,48.26
2023-05-21T07:43:14.760Z,48.10
2023-05-21T07:44:14.834Z,48.21
2023-05-21T07:45:14.806Z,47.98
2023-05-21T07:46:14.882Z,47.73
2023-05-21T07:47:14.849Z,47.63
2023-05-21T07:48:14.860Z,47.61
2023-05-21T07:49:14.905Z,46.91
2023-05-21T07:50:14.920Z,46.74
2023-05-21T07:51:15.017Z,47.20
2023-05-21T07:52:14.920Z,47.45
2023-05-21T07:53:14.920Z,47.42
2023-05-21T07:54:15.005Z,47.31
2023-05-21T07:55:14.976Z,46.99
2023-05-21T07:56:14.995Z,46.89
2023-05-21T07:57:15.036Z,46.93
2023-05-21T07:58:14.956Z,46.87
2023-05-21T07:59:15.050Z,46.61
2023-05-21T08:00:15.225Z,46.16
2023-05-21T08:01:15.237Z,45.94
2023-05-21T08:02:15.243Z,45.84
2023-05-21T08:03:15.578Z,45.68
2023-05-21T08:04:15.462Z,45.00
2023-05-21T08:05:15.513Z,45.12
2023-05-21T08:06:15.486Z,45.35
2023-05-21T08:07:15.585Z,45.42
2023-05-21T08:08:15.577Z,45.10
2023-05-21T08:09:15.657Z,45.35
2023-05-21T08:10:17.747Z,44.78
2023-05-21T08:11:15.719Z,44.48
2023-05-21T08:12:15.689Z,44.74
2023-05-21T08:13:15.688Z,44.71
2023-05-21T08:14:15.683Z,45.06
2023-05-21T08:15:15.767Z,45.06
2023-05-21T08:16:15.703Z,44.94
2023-05-21T08:17:15.688Z,45.32
2023-05-21T08:18:15.653Z,45.48
2023-05-21T08:19:15.692Z,45.39
2023-05-21T08:20:15.643Z,45.27
2023-05-21T08:21:15.894Z,45.11
2023-05-21T08:22:15.638Z,44.63
2023-05-21T08:23:15.611Z,44.93
2023-05-21T08:24:15.621Z,45.04
2023-05-21T08:25:15.607Z,44.74
2023-05-21T08:26:15.613Z,45.02
2023-05-21T08:27:15.635Z,44.79
2023-05-21T08:28:15.582Z,44.66
2023-05-21T08:29:15.576Z,44.52
2023-05-21T08:30:15.624Z,44.65
2023-05-21T08:31:15.607Z,44.97
2023-05-21T08:32:15.657Z,44.96
2023-05-21T08:33:15.600Z,44.66
2023-05-21T08:34:15.561Z,44.58
2023-05-21T08:35:15.518Z,44.38
2023-05-21T08:36:15.878Z,44.39
2023-05-21T08:37:15.537Z,44.48
2023-05-21T08:38:15.512Z,44.53
2023-05-21T08:39:15.501Z,44.22
2023-05-21T08:40:15.550Z,44.30
2023-05-21T08:41:15.502Z,44.40
2023-05-21T08:42:22.558Z,44.33
2023-05-21T08:43:16.510Z,43.89
2023-05-21T08:44:15.476Z,44.16
2023-05-21T08:45:15.464Z,44.44
2023-05-21T08:46:15.516Z,44.09
2023-05-21T08:47:15.464Z,43.72
2023-05-21T08:48:15.502Z,43.47
2023-05-21T08:49:15.419Z,43.71
2023-05-21T08:50:15.456Z,43.81
2023-05-21T08:51:15.519Z,44.02
2023-05-21T08:52:15.441Z,43.65
2023-05-21T08:53:24.073Z,43.69
2023-05-21T08:54:16.443Z,43.20
2023-05-21T08:55:15.441Z,42.94
2023-05-21T08:56:15.402Z,43.22
2023-05-21T08:57:15.406Z,43.60
2023-05-21T08:58:15.362Z,43.59
2023-05-21T08:59:15.402Z,43.72
2023-05-21T09:00:15.368Z,43.55
2023-05-21T09:01:15.432Z,42.93
2023-05-21T09:02:15.423Z,43.30
2023-05-21T09:03:15.374Z,43.79
2023-05-21T09:04:20.872Z,43.82
2023-05-21T09:05:16.393Z,43.11
2023-05-21T09:06:15.399Z,43.01
2023-05-21T09:07:15.435Z,40.88
2023-05-21T09:08:15.474Z,37.64
2023-05-21T09:09:15.521Z,36.82
2023-05-21T09:10:15.606Z,36.90
2023-05-21T09:11:15.606Z,37.64
2023-05-21T09:12:15.620Z,37.80
2023-05-21T09:13:15.637Z,37.83
2023-05-21T09:14:15.683Z,36.79
2023-05-21T09:15:15.686Z,35.97
2023-05-21T09:16:15.781Z,36.63
2023-05-21T09:17:15.777Z,35.39
2023-05-21T09:18:15.801Z,35.82
2023-05-21T09:19:15.998Z,35.29
2023-05-21T09:20:15.823Z,35.09
2023-05-21T09:21:15.879Z,34.99
2023-05-21T09:22:15.858Z,35.20
2023-05-21T09:23:15.896Z,35.53
2023-05-21T09:24:15.881Z,34.08
2023-05-21T09:25:15.914Z,34.80
2023-05-21T09:26:16.393Z,34.17
2023-05-21T09:27:15.949Z,33.98
2023-05-21T09:28:15.984Z,33.42
2023-05-21T09:29:15.996Z,32.48
2023-05-21T09:30:15.976Z,33.50
2023-05-21T09:31:16.951Z,32.63
2023-05-21T09:32:16.040Z,32.81
2023-05-21T09:33:16.021Z,32.96
2023-05-21T09:34:16.059Z,32.78
2023-05-21T09:35:16.082Z,32.73
2023-05-21T09:36:16.383Z,33.09
2023-05-21T09:37:26.607Z,32.42
2023-05-21T09:38:17.118Z,32.93
2023-05-21T09:39:16.138Z,33.14
2023-05-21T09:40:16.125Z,32.03
2023-05-21T09:41:19.493Z,32.17
2023-05-21T09:42:17.081Z,32.48
2023-05-21T09:43:16.090Z,32.24
2023-05-21T09:44:16.062Z,32.24
2023-05-21T09:45:16.124Z,32.22
2023-05-21T09:46:16.131Z,32.18
2023-05-21T09:47:16.038Z,32.11
2023-05-21T09:48:16.048Z,31.02
2023-05-21T09:49:16.036Z,30.51
2023-05-21T09:50:16.003Z,30.55
2023-05-21T09:51:16.329Z,30.39
2023-05-21T09:52:16.022Z,29.68
2023-05-21T09:53:15.984Z,30.40
2023-05-21T09:54:16.006Z,29.96
2023-05-21T09:55:16.017Z,29.77
2023-05-21T09:56:16.073Z,29.91
2023-05-21T09:57:16.104Z,29.99
2023-05-21T09:58:16.128Z,29.94
2023-05-21T09:59:16.178Z,29.81
2023-05-21T10:00:16.285Z,29.84
2023-05-21T10:01:16.313Z,29.99
2023-05-21T10:02:16.490Z,29.90
2023-05-21T10:03:16.491Z,29.83
2023-05-21T10:04:16.520Z,29.08
2023-05-21T10:05:16.473Z,29.59
2023-05-21T10:06:16.475Z,29.69
2023-05-21T10:07:16.625Z,29.61
2023-05-21T10:08:16.570Z,29.78
2023-05-21T10:09:16.606Z,29.98
2023-05-21T10:10:16.679Z,29.81
2023-05-21T10:11:16.757Z,30.22
2023-05-21T10:12:16.753Z,30.40
2023-05-21T10:13:16.846Z,30.33
2023-05-21T10:14:16.868Z,30.04
2023-05-21T10:15:16.974Z,29.86
2023-05-21T10:16:17.043Z,30.12
2023-05-21T10:17:17.039Z,30.36
2023-05-21T10:18:17.239Z,30.46
2023-05-21T10:19:17.155Z,30.31
2023-05-21T10:20:17.228Z,30.67
2023-05-21T10:21:17.223Z,30.42
2023-05-21T10:22:17.255Z,30.43
2023-05-21T10:23:17.260Z,30.76
2023-05-21T10:24:17.331Z,30.05
2023-05-21T10:25:17.296Z,30.07
2023-05-21T10:26:17.392Z,30.06
2023-05-21T10:27:17.423Z,29.06
2023-05-21T10:28:17.425Z,29.58
2023-05-21T10:29:19.667Z,29.68
2023-05-21T10:30:17.536Z,29.01
2023-05-21T10:31:17.586Z,28.97
2023-05-21T10:32:17.806Z,29.07
2023-05-21T10:33:17.719Z,29.20
2023-05-21T10:34:17.758Z,29.39
2023-05-21T10:35:17.823Z,29.42
2023-05-21T10:36:17.806Z,29.65
2023-05-21T10:37:17.798Z,29.71
2023-05-21T10:38:17.754Z,29.52
2023-05-21T10:39:17.806Z,29.53
2023-05-21T10:40:17.807Z,28.92
2023-05-21T10:41:17.918Z,28.03
2023-05-21T10:42:17.826Z,27.96
2023-05-21T10:43:17.859Z,27.46
2023-05-21T10:44:17.868Z,27.80
2023-05-21T10:45:17.864Z,27.97
2023-05-21T10:46:17.950Z,28.02
2023-05-21T10:47:17.964Z,28.41
2023-05-21T10:48:18.157Z,28.44
2023-05-21T10:49:18.065Z,27.86
2023-05-21T10:50:18.088Z,27.67
2023-05-21T10:51:18.133Z,27.63
2023-05-21T10:52:18.195Z,27.87
2023-05-21T10:53:18.230Z,27.96
2023-05-21T10:54:18.311Z,28.11
2023-05-21T10:55:18.361Z,28.16
2023-05-21T10:56:18.484Z,28.27
2023-05-21T10:57:18.466Z,27.79
2023-05-21T10:58:18.705Z,27.59
2023-05-21T10:59:18.600Z,26.94
2023-05-21T11:00:18.664Z,27.11
2023-05-21T11:01:18.598Z,26.54
2023-05-21T11:02:18.566Z,26.68
2023-05-21T11:03:18.657Z,26.78
2023-05-21T11:04:18.626Z,26.55
2023-05-21T11:05:18.671Z,26.23
2023-05-21T11:06:18.703Z,26.05
2023-05-21T11:07:18.746Z,26.18
2023-05-21T11:08:18.718Z,26.26
2023-05-21T11:09:18.722Z,26.89
2023-05-21T11:10:18.811Z,26.90
2023-05-21T11:11:18.916Z,26.65
2023-05-21T11:12:33.986Z,26.10
2023-05-21T11:14:54.379Z,26.04
2023-05-21T11:15:54.410Z,25.99
2023-05-21T11:16:54.705Z,26.10
2023-05-21T11:18:13.661Z,26.06
2023-05-21T11:19:11.430Z,26.02
2023-05-21T11:19:57.906Z,26.03
2023-05-21T11:20:57.941Z,26.04
2023-05-21T11:21:57.914Z,26.16
2023-05-21T11:22:57.884Z,25.04
2023-05-21T11:23:57.880Z,25.05
2023-05-21T11:24:57.897Z,24.79
2023-05-21T11:25:58.112Z,24.54
2023-05-21T11:26:57.848Z,24.16
2023-05-21T11:27:57.871Z,24.76
2023-05-21T11:28:57.828Z,24.82
2023-05-21T11:29:57.803Z,25.01
2023-05-21T11:30:57.890Z,24.57
2023-05-21T11:31:57.842Z,24.60
2023-05-21T11:32:58.032Z,24.59
2023-05-21T11:33:57.801Z,24.59
2023-05-21T11:34:57.806Z,24.65
2023-05-21T11:35:57.804Z,24.35
2023-05-21T11:36:57.799Z,24.81
2023-05-21T11:37:57.810Z,24.62
2023-05-21T11:38:57.781Z,24.80
2023-05-21T11:39:57.773Z,24.92
2023-05-21T11:40:58.188Z,25.40
2023-05-21T11:41:57.772Z,25.56
2023-05-21T11:42:57.769Z,25.65
2023-05-21T11:43:57.751Z,24.46
2023-05-21T11:44:57.785Z,24.52
2023-05-21T11:45:57.765Z,24.85
2023-05-21T11:46:57.759Z,24.54
2023-05-21T11:47:57.891Z,24.54
2023-05-21T11:48:57.904Z,24.82
2023-05-21T11:49:57.898Z,24.30
2023-05-21T11:50:58.155Z,24.67
2023-05-21T11:51:58.010Z,24.18
2023-05-21T11:52:58.063Z,23.67
2023-05-21T11:53:58.079Z,24.21
2023-05-21T11:54:58.037Z,24.03
2023-05-21T11:55:58.134Z,24.38
2023-05-21T11:56:58.156Z,24.73
2023-05-21T11:57:58.208Z,24.80
2023-05-21T11:58:58.248Z,24.48
2023-05-21T11:59:58.261Z,24.43
2023-05-21T12:00:58.651Z,24.16
2023-05-21T12:01:58.357Z,25.36
2023-05-21T12:02:58.502Z,25.97
2023-05-21T12:03:58.455Z,26.04
2023-05-21T12:04:58.472Z,26.21
2023-05-21T12:05:58.685Z,26.22
2023-05-21T12:06:58.500Z,25.91
2023-05-21T12:07:58.580Z,25.36
2023-05-21T12:08:58.674Z,25.50
2023-05-21T12:09:58.673Z,25.71
2023-05-21T12:10:59.202Z,25.90
2023-05-21T12:11:58.748Z,25.46
2023-05-21T12:12:58.809Z,24.99
2023-05-21T12:13:58.854Z,25.29
2023-05-21T12:14:58.831Z,24.69
2023-05-21T12:15:58.941Z,24.49
2023-05-21T12:16:58.927Z,24.46
2023-05-21T12:17:58.944Z,24.09
2023-05-21T12:18:59.001Z,24.42
2023-05-21T12:19:58.992Z,24.65
2023-05-21T12:20:59.052Z,25.07
2023-05-21T12:21:59.068Z,25.09
2023-05-21T12:22:59.252Z,24.99
2023-05-21T12:23:59.096Z,25.12
2023-05-21T12:24:59.134Z,24.60
2023-05-21T12:25:59.183Z,24.75
2023-05-21T12:26:59.188Z,24.92
2023-05-21T12:27:59.222Z,24.56
2023-05-21T12:28:59.230Z,24.41
2023-05-21T12:29:59.225Z,24.24
2023-05-21T12:30:59.684Z,23.96
2023-05-21T12:31:59.363Z,24.21
2023-05-21T12:32:59.422Z,24.54
2023-05-21T12:33:59.391Z,24.07
2023-05-21T12:34:59.412Z,24.50
2023-05-21T12:35:59.486Z,23.87
2023-05-21T12:36:59.505Z,23.59
2023-05-21T12:37:59.510Z,23.33
2023-05-21T12:38:59.554Z,23.94
2023-05-21T12:39:59.602Z,23.88
2023-05-21T12:40:59.679Z,24.37
2023-05-21T12:41:59.646Z,23.92
2023-05-21T12:42:59.664Z,24.16
2023-05-21T12:43:59.662Z,23.99
2023-05-21T12:44:59.699Z,23.85
2023-05-21T12:45:59.812Z,23.94
2023-05-21T12:46:59.761Z,24.01
2023-05-21T12:47:59.781Z,23.96
2023-05-21T12:48:59.769Z,24.44
2023-05-21T12:49:59.751Z,24.64
2023-05-21T12:50:59.790Z,24.73
2023-05-21T12:51:59.833Z,23.87
2023-05-21T12:52:59.824Z,23.75
2023-05-21T12:53:59.828Z,23.48
2023-05-21T12:54:59.829Z,23.88
2023-05-21T12:55:59.835Z,23.66
2023-05-21T12:56:59.846Z,23.40
2023-05-21T12:57:59.891Z,23.75
2023-05-21T12:58:59.899Z,23.81
2023-05-21T12:59:59.921Z,24.35
2023-05-21T13:02:19.123Z,23.95